Time;durP1;ratioP1;P1;durP2;ratioP2;P2;SDS_P1;SDS_P2;PMS_P1;PMS_P2;Temp;Humidity;BMP_temperature;BMP_pressure;BME280_temperature;BME280_humidity;BME280_pressure;Samples;Min_cycle;Max_cycle;Signal;HPM_P1;HPM_P2
2021/04/20 00:00:49;;;;;;;7.15;5.55;;;14.40;71.00;;;;;;5092362;28;20097;-44
2021/04/20 00:03:14;;;;;;;7.75;5.95;;;14.40;71.00;;;;;;5092707;28;20076;-41
2021/04/20 00:05:40;;;;;;;8.07;6.10;;;14.40;71.00;;;;;;5092051;28;20381;-42
2021/04/20 00:08:06;;;;;;;7.32;5.30;;;14.30;70.90;;;;;;5092621;28;20457;-41
2021/04/20 00:10:32;;;;;;;7.75;5.90;;;14.40;71.00;;;;;;5092118;28;20052;-42
2021/04/20 00:12:57;;;;;;;8.55;5.93;;;14.40;71.00;;;;;;5092347;28;20078;-44
2021/04/20 00:15:28;;;;;;;7.60;6.25;;;14.40;71.00;;;;;;5092785;28;20068;-42
2021/04/20 00:17:56;;;;;;;9.35;6.90;;;14.40;71.00;;;;;;5092744;28;20052;-42
2021/04/20 00:20:22;;;;;;;8.82;6.32;;;14.40;71.00;;;;;;5092300;28;20051;-45
2021/04/20 00:22:49;;;;;;;6.22;5.53;;;14.30;71.00;;;;;;5091704;28;20051;-43
2021/04/20 00:25:15;;;;;;;8.57;6.00;;;14.30;70.90;;;;;;5091961;28;20051;-41
2021/04/20 00:27:41;;;;;;;7.80;5.93;;;14.30;70.90;;;;;;5092305;28;20051;-45
2021/04/20 00:30:09;;;;;;;9.32;6.22;;;14.30;70.90;;;;;;5092199;28;20407;-43
2021/04/20 00:32:35;;;;;;;7.47;5.72;;;14.40;71.00;;;;;;5092026;28;20403;-43
2021/04/20 00:35:01;;;;;;;7.88;5.93;;;14.40;71.00;;;;;;5093263;28;20105;-44
2021/04/20 00:37:29;;;;;;;7.85;6.10;;;14.30;70.90;;;;;;5095738;28;20131;-42
2021/04/20 00:39:55;;;;;;;7.93;5.78;;;14.30;70.90;;;;;;5095892;28;20472;-44
2021/04/20 00:42:20;;;;;;;6.90;6.10;;;14.30;71.00;;;;;;5095816;28;20138;-41
2021/04/20 00:44:47;;;;;;;7.40;5.93;;;14.30;71.00;;;;;;5095568;28;20053;-43
2021/04/20 00:47:12;;;;;;;8.35;6.25;;;14.30;70.90;;;;;;5095859;28;20052;-42
2021/04/20 00:49:38;;;;;;;6.15;5.25;;;14.30;71.00;;;;;;5095905;28;20052;-44
2021/04/20 00:52:04;;;;;;;8.40;5.78;;;14.30;71.00;;;;;;5095268;28;20040;-41
2021/04/20 00:54:30;;;;;;;9.07;6.38;;;14.30;70.90;;;;;;5095286;28;20044;-41
2021/04/20 00:56:56;;;;;;;7.18;5.47;;;14.30;71.00;;;;;;5095641;28;20093;-42
2021/04/20 00:59:22;;;;;;;8.00;6.25;;;14.30;70.90;;;;;;5095698;28;20044;-43
2021/04/20 01:01:48;;;;;;;6.28;5.43;;;14.30;71.00;;;;;;5095734;28;20044;-43
2021/04/20 01:04:16;;;;;;;6.85;5.30;;;14.30;71.00;;;;;;5095267;28;20039;-42
2021/04/20 01:06:46;;;;;;;6.47;5.13;;;14.30;71.00;;;;;;5095057;28;20134;-45
2021/04/20 01:09:13;;;;;;;6.85;5.45;;;14.30;71.00;;;;;;5095098;28;20105;-42
2021/04/20 01:11:41;;;;;;;6.53;5.40;;;14.30;71.00;;;;;;5095559;28;20044;-45
2021/04/20 01:14:07;;;;;;;7.63;5.72;;;14.30;71.00;;;;;;5094084;28;20113;-42
2021/04/20 01:16:35;;;;;;;6.25;5.60;;;14.30;70.90;;;;;;5095054;28;20105;-42
2021/04/20 01:19:02;;;;;;;7.45;5.47;;;14.30;71.00;;;;;;5095308;28;20063;-48
2021/04/20 01:21:28;;;;;;;9.00;6.35;;;14.30;71.00;;;;;;5095466;28;20044;-43
2021/04/20 01:24:02;;;;;;;8.52;6.00;;;14.20;70.90;;;;;;5094675;28;20071;-47
2021/04/20 01:26:31;;;;;;;6.50;5.15;;;14.30;71.00;;;;;;5094545;28;20492;-45
2021/04/20 01:28:58;;;;;;;7.15;6.10;;;14.30;71.00;;;;;;5094477;28;20044;-44
2021/04/20 01:31:26;;;;;;;7.82;6.22;;;14.30;71.00;;;;;;5095122;28;20080;-43
2021/04/20 01:33:52;;;;;;;8.45;6.03;;;14.30;71.00;;;;;;5094481;28;20040;-46
2021/04/20 01:36:22;;;;;;;8.07;5.65;;;14.30;71.00;;;;;;5094978;28;20516;-44
2021/04/20 01:38:49;;;;;;;7.53;5.72;;;14.30;71.00;;;;;;5094635;28;20527;-46
2021/04/20 01:41:19;;;;;;;6.47;5.05;;;14.30;71.00;;;;;;5094580;28;20119;-46
2021/04/20 01:43:46;;;;;;;8.02;5.75;;;14.30;71.00;;;;;;5094663;28;20040;-46
2021/04/20 01:46:14;;;;;;;6.13;4.95;;;14.30;71.00;;;;;;5094298;28;20060;-45
2021/04/20 01:48:39;;;;;;;6.97;6.10;;;14.30;71.00;;;;;;5094183;28;20048;-44
2021/04/20 01:51:05;;;;;;;7.05;5.50;;;14.20;71.00;;;;;;5094506;28;20070;-44
2021/04/20 01:53:31;;;;;;;7.93;6.38;;;14.20;70.90;;;;;;5094281;28;20448;-43
2021/04/20 01:56:08;;;;;;;6.88;5.47;;;14.30;71.00;;;;;;5093661;28;20123;-47
2021/04/20 01:58:36;;;;;;;7.85;5.85;;;14.30;71.10;;;;;;5094616;28;20044;-46
2021/04/20 02:01:11;;;;;;;7.25;5.70;;;14.20;70.90;;;;;;5094253;28;20055;-43
2021/04/20 02:03:38;;;;;;;7.25;5.78;;;14.20;71.00;;;;;;5094358;28;20052;-45
2021/04/20 02:06:06;;;;;;;6.55;5.45;;;14.20;71.00;;;;;;5093845;28;20048;-43
2021/04/20 02:08:32;;;;;;;6.80;5.35;;;14.20;71.00;;;;;;5094038;28;20052;-43
2021/04/20 02:11:01;;;;;;;7.43;5.55;;;14.30;71.00;;;;;;5093911;28;20393;-44
2021/04/20 02:13:27;;;;;;;7.20;6.07;;;14.20;71.00;;;;;;5094430;28;20462;-44
2021/04/20 02:15:53;;;;;;;7.28;5.30;;;14.20;71.00;;;;;;5093883;28;20115;-40
2021/04/20 02:18:23;;;;;;;7.68;5.85;;;14.20;71.00;;;;;;5093542;28;20435;-43
2021/04/20 02:20:50;;;;;;;6.88;5.32;;;14.20;71.00;;;;;;5094294;28;20075;-47
2021/04/20 02:23:16;;;;;;;7.78;5.68;;;14.20;71.00;;;;;;5093857;28;20047;-46
2021/04/20 02:25:46;;;;;;;6.63;5.00;;;14.20;71.00;;;;;;5093645;28;20415;-45
2021/04/20 02:28:12;;;;;;;6.72;5.45;;;14.20;71.10;;;;;;5093294;28;20125;-46
2021/04/20 02:30:37;;;;;;;7.18;6.00;;;14.30;71.10;;;;;;5093281;28;20166;-42
2021/04/20 02:33:04;;;;;;;7.38;5.70;;;14.20;71.00;;;;;;5093765;28;20072;-44
2021/04/20 02:35:31;;;;;;;7.15;5.40;;;14.20;71.00;;;;;;5093797;28;20246;-45
2021/04/20 02:37:58;;;;;;;7.75;5.78;;;14.20;71.10;;;;;;5093141;28;20039;-45
2021/04/20 02:40:26;;;;;;;8.95;6.15;;;14.20;71.10;;;;;;5093402;28;20438;-46
2021/04/20 02:42:53;;;;;;;8.75;6.45;;;14.20;71.10;;;;;;5093396;28;20059;-47
2021/04/20 02:45:24;;;;;;;6.93;5.55;;;14.20;71.10;;;;;;5093497;28;20044;-43
2021/04/20 02:47:51;;;;;;;7.15;5.90;;;14.20;71.10;;;;;;5093406;28;20463;-40
2021/04/20 02:50:23;;;;;;;6.40;5.13;;;14.20;71.10;;;;;;5093056;28;20044;-48
2021/04/20 02:52:52;;;;;;;8.32;6.30;;;14.20;71.10;;;;;;5093474;28;20047;-48
2021/04/20 02:55:19;;;;;;;6.47;5.32;;;14.20;71.80;;;;;;5093331;28;20487;-43
2021/04/20 02:57:49;;;;;;;6.75;5.55;;;14.20;71.10;;;;;;5092648;28;20087;-44
2021/04/20 03:00:18;;;;;;;6.95;5.25;;;14.20;71.10;;;;;;5092784;28;20042;-45
2021/04/20 03:02:46;;;;;;;7.72;5.43;;;14.20;71.10;;;;;;5093420;28;20059;-44
2021/04/20 03:05:17;;;;;;;7.88;5.90;;;14.20;71.10;;;;;;5093192;28;20054;-45
2021/04/20 03:07:44;;;;;;;7.68;5.75;;;14.20;71.10;;;;;;5093065;28;20074;-44
2021/04/20 03:10:16;;;;;;;7.30;5.88;;;14.20;71.10;;;;;;5093106;28;20051;-44
2021/04/20 03:12:42;;;;;;;7.88;5.65;;;14.20;71.10;;;;;;5092615;28;20051;-43
2021/04/20 03:15:11;;;;;;;6.97;5.43;;;14.20;71.10;;;;;;5093103;28;20052;-42
2021/04/20 03:17:39;;;;;;;6.63;5.65;;;14.20;71.10;;;;;;5092935;28;20044;-46
2021/04/20 03:20:08;;;;;;;6.93;6.22;;;14.10;71.10;;;;;;5092689;28;20055;-41
2021/04/20 03:22:34;;;;;;;6.75;5.63;;;14.20;71.10;;;;;;5093041;28;20051;-42
2021/04/20 03:25:06;;;;;;;6.85;5.85;;;14.20;71.10;;;;;;5092901;28;20067;-43
2021/04/20 03:27:58;;;;;;;6.85;5.82;;;14.20;71.20;;;;;;5092500;28;20078;-42
2021/04/20 03:30:28;;;;;;;6.72;5.35;;;14.20;71.10;;;;;;5091561;28;20051;-45
2021/04/20 03:33:08;;;;;;;7.88;5.88;;;14.20;71.10;;;;;;5092384;28;20511;-44
2021/04/20 03:35:40;;;;;;;7.03;5.30;;;14.20;71.80;;;;;;5092811;28;20048;-43
2021/04/20 03:38:17;;;;;;;7.97;6.05;;;14.10;71.10;;;;;;5092916;28;20040;-44
2021/04/20 03:40:50;;;;;;;7.60;6.03;;;14.20;71.20;;;;;;5092577;28;20071;-43
2021/04/20 03:43:19;;;;;;;7.55;5.55;;;14.20;71.10;;;;;;5092284;28;20040;-45
2021/04/20 03:45:51;;;;;;;7.47;6.03;;;14.20;71.80;;;;;;5093009;28;20048;-46
2021/04/20 03:48:28;;;;;;;7.47;5.78;;;14.20;71.20;;;;;;5092646;28;20047;-44
2021/04/20 03:51:01;;;;;;;6.85;5.57;;;14.20;71.20;;;;;;5092764;28;20040;-43
2021/04/20 03:53:28;;;;;;;6.38;5.28;;;14.20;71.20;;;;;;5091972;28;20048;-46
2021/04/20 03:55:55;;;;;;;6.20;4.90;;;14.20;71.20;;;;;;5092462;28;20051;-44
2021/04/20 03:58:22;;;;;;;7.38;5.65;;;14.20;71.20;;;;;;5092383;28;20044;-45
2021/04/20 04:00:55;;;;;;;7.70;6.20;;;14.10;71.20;;;;;;5092837;28;20040;-41
2021/04/20 04:03:24;;;;;;;7.10;5.38;;;14.10;71.10;;;;;;5092191;28;20072;-47
2021/04/20 04:05:51;;;;;;;6.90;5.57;;;14.20;71.20;;;;;;5092492;28;20047;-48
2021/04/20 04:08:19;;;;;;;6.20;5.15;;;14.10;71.20;;;;;;5092258;28;20450;-46
2021/04/20 04:10:51;;;;;;;8.40;5.55;;;14.10;71.20;;;;;;5094258;28;20048;-46
2021/04/20 04:13:20;;;;;;;7.50;5.75;;;14.10;71.80;;;;;;5095902;28;20044;-48
2021/04/20 04:15:48;;;;;;;7.32;5.57;;;14.10;71.20;;;;;;5095523;28;20048;-47
2021/04/20 04:18:15;;;;;;;6.63;5.28;;;14.10;71.20;;;;;;5095743;28;20098;-46
2021/04/20 04:20:41;;;;;;;6.35;5.18;;;14.10;71.20;;;;;;5095256;28;20075;-45
2021/04/20 04:23:07;;;;;;;7.18;5.55;;;14.10;71.20;;;;;;5095602;28;20480;-45
2021/04/20 04:25:36;;;;;;;7.40;6.05;;;14.10;71.20;;;;;;5096184;28;20051;-41
2021/04/20 04:28:03;;;;;;;7.32;5.75;;;14.20;71.30;;;;;;5096101;28;20080;-43
2021/04/20 04:30:30;;;;;;;7.40;5.70;;;14.10;71.20;;;;;;5095976;28;20051;-48
2021/04/20 04:32:57;;;;;;;7.20;5.32;;;14.10;71.20;;;;;;5096139;28;20119;-43
2021/04/20 04:35:24;;;;;;;7.00;5.78;;;14.10;71.20;;;;;;5095803;28;20048;-44
2021/04/20 04:37:50;;;;;;;7.10;5.22;;;14.10;71.20;;;;;;5095613;28;20044;-44
2021/04/20 04:40:17;;;;;;;6.63;5.30;;;14.10;71.20;;;;;;5096014;28;20044;-46
2021/04/20 04:42:44;;;;;;;7.22;5.80;;;14.10;71.30;;;;;;5096284;28;20044;-42
2021/04/20 04:45:11;;;;;;;8.02;5.53;;;14.10;71.20;;;;;;5095354;28;20044;-42
2021/04/20 04:47:38;;;;;;;6.35;5.65;;;14.10;71.20;;;;;;5095864;28;20071;-44
2021/04/20 04:50:09;;;;;;;7.32;5.65;;;14.10;71.20;;;;;;5095544;28;20048;-43
2021/04/20 04:52:35;;;;;;;7.35;5.82;;;14.10;71.20;;;;;;5095794;28;20101;-49
2021/04/20 04:55:03;;;;;;;7.00;5.25;;;14.10;71.20;;;;;;5095597;28;20045;-46
2021/04/20 04:57:31;;;;;;;6.65;5.90;;;14.10;71.20;;;;;;5095231;28;20050;-46
2021/04/20 05:00:06;;;;;;;5.90;5.10;;;14.10;71.20;;;;;;5095669;28;20047;-46
2021/04/20 05:02:36;;;;;;;7.30;5.38;;;14.10;71.20;;;;;;5095153;28;20059;-44
2021/04/20 05:05:13;;;;;;;7.43;5.65;;;14.10;71.20;;;;;;5095002;28;20044;-47
2021/04/20 05:07:39;;;;;;;7.50;5.75;;;14.10;71.20;;;;;;5095144;28;20044;-45
2021/04/20 05:10:07;;;;;;;6.30;5.35;;;14.10;71.30;;;;;;5095291;28;20457;-45
2021/04/20 05:12:33;;;;;;;6.63;5.45;;;14.10;71.20;;;;;;5095376;28;20044;-43
2021/04/20 05:15:17;;;;;;;7.20;5.75;;;14.10;71.20;;;;;;5095332;28;20565;-46
2021/04/20 05:17:43;;;;;;;6.45;5.50;;;14.10;71.20;;;;;;5094187;28;20510;-44
2021/04/20 05:20:11;;;;;;;7.03;5.72;;;14.10;71.30;;;;;;5095249;28;20055;-45
2021/04/20 05:22:37;;;;;;;6.10;5.25;;;14.10;71.30;;;;;;5094898;28;20073;-43
2021/04/20 05:25:08;;;;;;;7.32;5.68;;;14.00;71.20;;;;;;5094971;28;20040;-44
2021/04/20 05:27:34;;;;;;;7.15;5.38;;;14.10;71.30;;;;;;5094868;28;20067;-45
2021/04/20 05:30:00;;;;;;;7.00;5.50;;;14.10;71.30;;;;;;5094275;28;20052;-46
2021/04/20 05:32:26;;;;;;;7.45;5.20;;;14.10;71.30;;;;;;5094365;28;20067;-43
2021/04/20 05:34:52;;;;;;;6.55;5.40;;;14.10;71.40;;;;;;5126836;27;20083;-43
2021/04/20 05:37:35;;;;;;;6.53;5.03;;;14.10;71.30;;;;;;5094731;28;20056;-45
2021/04/20 05:40:09;;;;;;;6.60;5.30;;;14.10;71.30;;;;;;5094238;28;20122;-45
2021/04/20 05:42:36;;;;;;;7.78;5.55;;;14.10;71.30;;;;;;5094238;28;20044;-49
2021/04/20 05:45:03;;;;;;;7.05;5.43;;;14.10;71.30;;;;;;5094878;28;20087;-45
2021/04/20 05:47:30;;;;;;;7.28;5.35;;;14.10;71.50;;;;;;5094239;28;20051;-47
2021/04/20 05:49:58;;;;;;;7.78;5.93;;;14.10;71.30;;;;;;5094145;28;20468;-46
2021/04/20 05:52:26;;;;;;;6.43;5.72;;;14.10;71.30;;;;;;5094499;28;20050;-46
2021/04/20 05:54:58;;;;;;;7.03;5.75;;;14.10;71.30;;;;;;5094622;28;20082;-41
2021/04/20 05:57:25;;;;;;;7.38;5.47;;;14.10;71.30;;;;;;5094104;28;20423;-44
2021/04/20 05:59:56;;;;;;;7.72;5.55;;;14.10;71.30;;;;;;5092824;28;20241;-43
2021/04/20 06:02:24;;;;;;;8.35;6.57;;;14.10;71.50;;;;;;5094023;28;20055;-46
2021/04/20 06:04:57;;;;;;;6.35;5.50;;;14.10;71.30;;;;;;5093818;28;20105;-46
2021/04/20 06:07:23;;;;;;;7.63;5.50;;;14.10;71.40;;;;;;5094188;28;20526;-44
2021/04/20 06:09:49;;;;;;;6.72;5.30;;;14.10;71.40;;;;;;5093932;28;20043;-45
2021/04/20 06:12:15;;;;;;;6.18;4.97;;;14.10;71.40;;;;;;5093396;28;20067;-47
2021/04/20 06:14:42;;;;;;;5.97;5.13;;;14.10;71.40;;;;;;5093752;28;20055;-46
2021/04/20 06:17:10;;;;;;;6.75;5.35;;;14.10;71.40;;;;;;5094108;28;20047;-42
2021/04/20 06:19:37;;;;;;;8.10;5.13;;;14.10;71.40;;;;;;5093908;28;20052;-48
2021/04/20 06:22:04;;;;;;;6.80;5.30;;;14.10;72.00;;;;;;5093651;28;20048;-46
2021/04/20 06:24:32;;;;;;;7.43;5.53;;;14.10;71.40;;;;;;5092370;28;20136;-46
2021/04/20 06:26:58;;;;;;;5.75;4.90;;;14.10;71.40;;;;;;5093772;28;20090;-46
2021/04/20 06:29:26;;;;;;;7.18;5.20;;;14.10;71.40;;;;;;5093617;28;20056;-48
2021/04/20 06:31:53;;;;;;;6.15;5.10;;;14.10;71.40;;;;;;5093500;28;20050;-45
2021/04/20 06:34:20;;;;;;;6.88;5.30;;;14.10;71.40;;;;;;5092864;28;20051;-48
2021/04/20 06:36:46;;;;;;;6.22;5.25;;;14.10;71.40;;;;;;5093909;28;20066;-44
2021/04/20 06:39:12;;;;;;;7.57;5.03;;;14.10;71.40;;;;;;5093707;28;20044;-46
2021/04/20 06:41:40;;;;;;;6.57;4.90;;;14.00;71.30;;;;;;5092927;28;20066;-43
2021/04/20 06:44:26;;;;;;;6.57;5.50;;;14.10;71.30;;;;;;5103926;28;20051;-46
2021/04/20 06:47:01;;;;;;;;;;;14.20;71.40;;;;;;5051508;28;20049;-47
2021/04/20 06:49:39;;;;;;;6.72;5.28;;;14.00;71.20;;;;;;5030769;28;19967;-46
2021/04/20 06:52:10;;;;;;;6.20;4.68;;;14.00;71.30;;;;;;5030967;28;20085;-44
2021/04/20 06:54:44;;;;;;;5.80;5.05;;;14.00;71.30;;;;;;5031207;28;20053;-47
2021/04/20 06:57:21;;;;;;;6.70;4.85;;;14.00;71.30;;;;;;5030962;28;20045;-45
2021/04/20 07:00:11;;;;;;;5.85;4.65;;;14.10;71.30;;;;;;5036430;28;20045;-45
2021/04/20 07:03:13;;;;;;;7.85;5.45;;;14.10;71.30;;;;;;5050828;28;20602;-45
2021/04/20 07:05:39;;;;;;;6.30;5.28;;;14.10;71.30;;;;;;5050216;28;20049;-43
2021/04/20 07:08:13;;;;;;;6.18;4.95;;;14.10;71.30;;;;;;5050755;28;20135;-43
2021/04/20 07:10:44;;;;;;;7.00;5.20;;;14.10;71.30;;;;;;5050620;28;20053;-47
2021/04/20 07:13:19;;;;;;;6.18;4.97;;;14.10;71.30;;;;;;5039286;28;20357;-49
2021/04/20 07:15:51;;;;;;;6.47;5.18;;;14.10;71.30;;;;;;5030719;28;20139;-47
2021/04/20 07:18:47;;;;;;;5.88;4.90;;;14.10;71.30;;;;;;5030714;28;20073;-48
2021/04/20 07:21:31;;;;;;;5.85;4.75;;;14.10;71.20;;;;;;5030360;28;20053;-47
2021/04/20 07:24:17;;;;;;;7.68;4.43;;;14.10;71.30;;;;;;5060781;28;20044;-45
2021/04/20 07:27:11;;;;;;;6.82;5.05;;;14.10;71.30;;;;;;5092972;28;20090;-44
2021/04/20 07:30:10;;;;;;;6.18;4.75;;;14.10;71.30;;;;;;5092746;28;20063;-45
2021/04/20 07:33:14;;;;;;;6.07;4.80;;;14.10;71.20;;;;;;5092796;28;20055;-49
2021/04/20 07:36:13;;;;;;;6.28;4.78;;;14.10;71.30;;;;;;5092823;28;20502;-45
2021/04/20 07:39:03;;;;;;;11.45;9.20;;;14.10;71.30;;;;;;5092714;28;20048;-45
2021/04/20 07:41:52;;;;;;;17.45;10.75;;;14.30;70.40;;;;;;5092976;28;20127;-46
2021/04/20 07:44:33;;;;;;;16.58;9.52;;;15.20;69.10;;;;;;5093649;28;20048;-47
2021/04/20 07:47:10;;;;;;;14.60;9.32;;;16.10;67.00;;;;;;5096597;28;20051;-48
2021/04/20 07:50:08;;;;;;;13.35;9.82;;;16.40;66.00;;;;;;5097206;28;20047;-44
2021/04/20 07:53:12;;;;;;;13.63;9.30;;;16.40;64.90;;;;;;5096237;28;20044;-53
2021/04/20 07:55:53;;;;;;;15.07;10.13;;;16.40;64.80;;;;;;5112735;28;20040;-54
2021/04/20 07:58:21;;;;;;;12.63;9.55;;;16.30;64.80;;;;;;5113267;28;20081;-57
2021/04/20 08:00:56;;;;;;;13.25;9.93;;;16.10;64.80;;;;;;5096865;28;20419;-54
2021/04/20 08:03:49;;;;;;;10.80;9.15;;;16.00;64.90;;;;;;5096457;28;20052;-57
2021/04/20 08:06:20;;;;;;;13.65;9.73;;;15.90;65.10;;;;;;5054111;28;20133;-53
2021/04/20 08:08:54;;;;;;;11.55;9.35;;;15.80;65.30;;;;;;5053744;28;20063;-55
2021/04/20 08:11:24;;;;;;;11.93;9.38;;;15.70;65.60;;;;;;5054004;28;20053;-54
2021/04/20 08:13:51;;;;;;;13.27;9.27;;;15.60;65.80;;;;;;5053493;28;20059;-48
2021/04/20 08:16:46;;;;;;;11.18;8.18;;;15.50;66.00;;;;;;5057887;28;20119;-55
2021/04/20 08:19:31;;;;;;;11.63;8.38;;;15.50;67.00;;;;;;5055409;28;20072;-51
2021/04/20 08:21:58;;;;;;;12.45;8.45;;;15.40;66.60;;;;;;5051048;28;20124;-52
2021/04/20 08:24:31;;;;;;;10.77;8.00;;;15.30;66.70;;;;;;5052897;28;20094;-50
2021/04/20 08:27:13;;;;;;;10.50;8.60;;;15.30;67.00;;;;;;5053673;28;20099;-52
2021/04/20 08:29:41;;;;;;;10.90;8.63;;;15.30;67.20;;;;;;5053524;28;20053;-53
2021/04/20 08:32:11;;;;;;;12.45;8.30;;;15.20;67.30;;;;;;5053627;28;20127;-55
2021/04/20 08:34:45;;;;;;;10.00;7.57;;;15.20;67.50;;;;;;5053543;28;20053;-55
2021/04/20 08:37:34;;;;;;;10.77;8.02;;;15.20;67.70;;;;;;5053365;28;20126;-57
2021/04/20 08:40:27;;;;;;;9.68;8.43;;;15.10;67.80;;;;;;5052956;28;20563;-54
2021/04/20 08:43:08;;;;;;;10.02;7.90;;;15.10;67.90;;;;;;5069623;28;20420;-57
2021/04/20 08:45:46;;;;;;;11.23;7.78;;;15.10;68.10;;;;;;5095893;28;20507;-55
2021/04/20 08:48:19;;;;;;;8.57;7.28;;;15.10;68.20;;;;;;5095353;28;20548;-56
2021/04/20 08:51:24;;;;;;;9.60;7.18;;;15.00;68.30;;;;;;5095153;28;20047;-51
2021/04/20 08:53:50;;;;;;;8.13;6.47;;;15.10;68.50;;;;;;5072878;28;20120;-54
2021/04/20 08:56:35;;;;;;;9.07;7.07;;;15.00;68.50;;;;;;5072640;28;20060;-55
2021/04/20 08:59:24;;;;;;;8.07;7.20;;;15.00;68.60;;;;;;5072531;28;20432;-49
2021/04/20 09:02:21;;;;;;;10.52;6.85;;;15.00;68.70;;;;;;5053118;28;20053;-52
2021/04/20 09:05:07;;;;;;;8.02;6.63;;;15.00;68.80;;;;;;5053227;28;20080;-56
2021/04/20 09:07:42;;;;;;;8.80;6.47;;;15.00;68.80;;;;;;5053097;28;20401;-56
2021/04/20 09:10:23;;;;;;;9.98;7.13;;;15.00;68.90;;;;;;5053824;28;20102;-54
2021/04/20 09:12:59;;;;;;;9.68;7.15;;;15.00;68.90;;;;;;5052865;28;20048;-57
2021/04/20 09:15:26;;;;;;;8.43;6.57;;;15.00;69.00;;;;;;5052924;28;20049;-58
2021/04/20 09:17:58;;;;;;;9.95;7.40;;;15.00;69.00;;;;;;5052723;28;20524;-54
2021/04/20 09:20:43;;;;;;;7.45;6.22;;;15.00;69.10;;;;;;5053400;28;20147;-51
2021/04/20 09:23:46;;;;;;;8.48;7.13;;;15.00;69.10;;;;;;5072839;28;20049;-56
2021/04/20 09:26:28;;;;;;;7.72;5.85;;;15.00;69.20;;;;;;5012578;28;20081;-58
2021/04/20 09:29:19;;;;;;;8.23;6.18;;;15.00;69.20;;;;;;5012631;28;20522;-57
2021/04/20 09:31:55;;;;;;;6.72;5.65;;;15.10;69.30;;;;;;5019368;28;20042;-58
2021/04/20 09:34:24;;;;;;;6.95;5.95;;;15.10;69.30;;;;;;5032844;28;20050;-54
2021/04/20 09:36:51;;;;;;;7.88;5.75;;;15.10;69.30;;;;;;5032795;28;20058;-52
2021/04/20 09:39:19;;;;;;;7.53;5.82;;;15.10;69.30;;;;;;5032652;28;20050;-52
2021/04/20 09:41:46;;;;;;;7.60;6.13;;;15.10;69.30;;;;;;5031910;28;20088;-52
2021/04/20 09:44:34;;;;;;;6.78;6.05;;;15.10;69.30;;;;;;5012446;28;20050;-56
2021/04/20 09:47:27;;;;;;;7.22;6.13;;;15.10;69.30;;;;;;5024265;28;20490;-57
2021/04/20 09:49:58;;;;;;;7.85;5.68;;;15.10;69.40;;;;;;5032392;28;20065;-55
2021/04/20 09:52:33;;;;;;;7.00;5.32;;;15.10;69.40;;;;;;5031980;28;20111;-56
2021/04/20 09:55:06;;;;;;;8.17;6.30;;;15.20;69.40;;;;;;5032003;28;20064;-52
2021/04/20 09:57:37;;;;;;;6.15;4.72;;;15.20;69.40;;;;;;5032022;28;20076;-55
2021/04/20 10:00:11;;;;;;;6.95;5.60;;;15.20;69.30;;;;;;5032100;28;20492;-56
2021/04/20 10:03:11;;;;;;;7.50;5.45;;;15.20;69.30;;;;;;5053467;28;20110;-57
2021/04/20 10:05:47;;;;;;;7.03;5.20;;;15.20;69.30;;;;;;5094606;28;20064;-55
2021/04/20 10:08:33;;;;;;;5.32;4.82;;;15.20;69.30;;;;;;5093265;28;20040;-56
2021/04/20 10:11:08;;;;;;;6.43;4.90;;;15.30;69.30;;;;;;5094458;28;20051;-58
2021/04/20 10:13:47;;;;;;;6.60;5.10;;;15.30;69.30;;;;;;5093448;28;20131;-56
2021/04/20 10:16:26;;;;;;;5.78;4.50;;;15.30;69.30;;;;;;5074002;28;20045;-58
2021/04/20 10:19:16;;;;;;;7.30;5.05;;;15.30;69.20;;;;;;5073819;28;20109;-58
2021/04/20 10:22:10;;;;;;;6.60;4.93;;;15.30;69.20;;;;;;5074058;28;20377;-59
2021/04/20 10:24:37;;;;;;;7.47;5.00;;;15.40;69.20;;;;;;5077388;28;20074;-56
2021/04/20 10:27:11;;;;;;;6.75;4.80;;;15.40;69.30;;;;;;5093577;28;20040;-55
2021/04/20 10:29:40;;;;;;;5.88;4.43;;;15.40;69.20;;;;;;5093722;28;20412;-57
2021/04/20 10:32:27;;;;;;;6.32;4.65;;;15.40;69.80;;;;;;5093973;28;20094;-58
2021/04/20 10:34:54;;;;;;;5.88;4.32;;;15.40;69.10;;;;;;5093496;28;20040;-53
2021/04/20 10:37:34;;;;;;;5.75;4.13;;;15.40;69.10;;;;;;5092207;28;20101;-55
2021/04/20 10:40:01;;;;;;;6.43;3.92;;;15.40;69.00;;;;;;5093586;28;20043;-47
2021/04/20 10:42:32;;;;;;;5.47;4.50;;;15.50;69.10;;;;;;5093608;28;20174;-57
2021/04/20 10:44:58;;;;;;;4.50;4.03;;;15.50;69.70;;;;;;5093683;28;20055;-52
2021/04/20 10:47:26;;;;;;;5.13;4.30;;;15.50;69.00;;;;;;5093251;28;20115;-59
2021/04/20 10:49:54;;;;;;;6.50;4.70;;;15.50;69.00;;;;;;5093591;28;20128;-53
2021/04/20 10:52:23;;;;;;;4.85;3.75;;;15.50;68.90;;;;;;5093563;28;20075;-52
2021/04/20 10:54:50;;;;;;;4.70;3.67;;;15.60;69.00;;;;;;5093567;28;20062;-56
2021/04/20 10:57:18;;;;;;;5.78;3.92;;;15.60;69.00;;;;;;5093252;28;20052;-53
2021/04/20 10:59:54;;;;;;;4.95;3.85;;;15.70;69.00;;;;;;5092760;28;20054;-55
2021/04/20 11:02:21;;;;;;;;;;;15.60;68.90;;;;;;5094026;28;20173;-46
2021/04/20 11:04:50;;;;;;;4.63;3.63;;;15.60;68.90;;;;;;5093226;28;20372;-53
2021/04/20 11:07:40;;;;;;;5.15;3.58;;;15.60;68.90;;;;;;5093038;28;20040;-54
2021/04/20 11:10:08;;;;;;;4.97;4.05;;;15.70;68.80;;;;;;5093098;28;20050;-49
2021/04/20 11:12:40;;;;;;;4.78;4.03;;;15.70;68.80;;;;;;5093105;28;20377;-55
2021/04/20 11:15:07;;;;;;;4.60;3.83;;;15.70;68.70;;;;;;5092785;28;20070;-53
2021/04/20 11:17:47;;;;;;;5.07;3.80;;;15.70;68.70;;;;;;5092950;28;20115;-54
2021/04/20 11:20:14;;;;;;;4.70;3.30;;;15.70;68.70;;;;;;5076185;28;20431;-55
2021/04/20 11:22:46;;;;;;;5.15;4.20;;;15.80;68.70;;;;;;5092860;28;20048;-53
2021/04/20 11:25:38;;;;;;;4.18;3.65;;;15.80;68.60;;;;;;5092978;28;20044;-54
2021/04/20 11:28:14;;;;;;;5.43;3.80;;;15.90;68.60;;;;;;5089626;28;20048;-54
2021/04/20 11:30:50;;;;;;;3.95;3.17;;;15.80;68.60;;;;;;5092418;28;20067;-51
2021/04/20 11:33:43;;;;;;;3.85;3.10;;;15.80;68.50;;;;;;5092910;28;20068;-52
2021/04/20 11:36:23;;;;;;;4.20;3.42;;;15.80;68.50;;;;;;5010626;28;20082;-50
2021/04/20 11:38:55;;;;;;;5.07;3.30;;;15.90;68.50;;;;;;5010893;28;20050;-47
2021/04/20 11:41:30;;;;;;;4.07;3.10;;;15.90;68.50;;;;;;5010561;28;20473;-53
2021/04/20 11:44:00;;;;;;;4.57;3.45;;;15.90;68.40;;;;;;5010866;28;20046;-52
2021/04/20 11:46:32;;;;;;;3.50;2.92;;;15.90;68.40;;;;;;5010546;28;20073;-52
2021/04/20 11:49:10;;;;;;;5.07;3.50;;;16.00;68.40;;;;;;4993909;28;20127;-50
2021/04/20 11:51:39;;;;;;;4.00;2.88;;;15.90;68.30;;;;;;5010388;28;20132;-55
2021/04/20 11:54:05;;;;;;;3.83;3.17;;;15.90;68.30;;;;;;5010686;28;20046;-56
2021/04/20 11:56:40;;;;;;;3.60;2.90;;;15.90;68.30;;;;;;5010761;28;20081;-53
2021/04/20 11:59:06;;;;;;;4.25;2.83;;;16.00;68.20;;;;;;5010732;28;20078;-53
2021/04/20 12:01:35;;;;;;;3.92;3.13;;;15.90;68.20;;;;;;5010197;28;20064;-52
2021/04/20 12:04:03;;;;;;;3.90;3.08;;;16.00;68.20;;;;;;5010419;28;20130;-56
2021/04/20 12:06:50;;;;;;;3.50;2.60;;;16.00;68.20;;;;;;5010071;28;20506;-56
2021/04/20 12:09:19;;;;;;;3.35;2.65;;;16.00;68.10;;;;;;5010487;28;20054;-56
2021/04/20 12:11:47;;;;;;;4.10;2.97;;;16.10;68.10;;;;;;5010608;28;20133;-55
2021/04/20 12:14:17;;;;;;;4.65;3.05;;;16.10;68.10;;;;;;5087542;28;20067;-57
2021/04/20 12:16:44;;;;;;;4.68;2.92;;;16.10;68.10;;;;;;5092242;28;20400;-56
2021/04/20 12:19:14;;;;;;;3.13;2.58;;;16.10;68.10;;;;;;5092356;28;20068;-53
2021/04/20 12:21:45;;;;;;;4.63;3.13;;;16.10;68.10;;;;;;5091942;28;20040;-56
2021/04/20 12:24:16;;;;;;;4.20;3.25;;;16.10;68.00;;;;;;5089180;28;20075;-46
2021/04/20 12:26:46;;;;;;;3.67;3.20;;;16.10;68.00;;;;;;5092044;28;20044;-56
2021/04/20 12:29:14;;;;;;;4.50;3.20;;;16.20;68.00;;;;;;5091544;28;20060;-52
2021/04/20 12:31:40;;;;;;;3.60;2.70;;;16.20;68.00;;;;;;5093716;28;20399;-55
2021/04/20 12:34:06;;;;;;;3.67;2.60;;;16.20;68.00;;;;;;5095169;28;20040;-53
2021/04/20 12:36:49;;;;;;;3.03;2.30;;;16.20;67.90;;;;;;5095143;28;20043;-44
2021/04/20 12:39:25;;;;;;;3.25;2.60;;;16.20;67.90;;;;;;5092968;28;20067;-54
2021/04/20 12:41:52;;;;;;;2.80;2.22;;;16.20;68.50;;;;;;5096059;28;20050;-52
2021/04/20 12:44:24;;;;;;;3.40;2.38;;;16.20;67.90;;;;;;5094584;28;20071;-53
2021/04/20 12:46:53;;;;;;;3.40;2.45;;;16.20;67.80;;;;;;5095294;28;20074;-49
2021/04/20 12:49:22;;;;;;;3.20;2.58;;;16.20;67.90;;;;;;5095709;28;20040;-53
2021/04/20 12:51:48;;;;;;;2.83;2.35;;;16.10;67.80;;;;;;5096000;28;20048;-51
2021/04/20 12:54:19;;;;;;;3.58;2.53;;;16.10;67.80;;;;;;5095894;28;20120;-45
2021/04/20 12:56:47;;;;;;;2.50;2.13;;;16.20;67.80;;;;;;5095419;28;20050;-53
2021/04/20 12:59:22;;;;;;;2.78;2.35;;;16.30;67.80;;;;;;5095750;28;20052;-54
2021/04/20 13:01:54;;;;;;;2.85;2.20;;;16.30;67.80;;;;;;5095311;28;20377;-52
2021/04/20 13:04:29;;;;;;;2.60;1.90;;;16.30;67.90;;;;;;5094557;28;20039;-47
2021/04/20 13:06:55;;;;;;;;;;;16.30;67.80;;;;;;5094340;28;20044;-53
2021/04/20 13:09:28;;;;;;;2.53;2.28;;;16.20;67.80;;;;;;5095481;28;19926;-54
2021/04/20 13:11:55;;;;;;;3.20;2.20;;;16.20;67.80;;;;;;5075203;28;20068;-48